Alesund/Vigra

Airport
ICAO code: 
ENAL
Summary
ICAO Region: 
EUR
Territory: 
Location: 
Alesund/Vigra,
Elevation: 
69 ft
Coordinates: 
Aerial View: 
62° 33' 45" N, 6° 7' 10.92" E
Metar
Observation
ENAL 050820Z 18004KT 150V230 9999 FEW021 SCT028 BKN036 02/M03 Q1013
Station
Alesund / Vigra
Date/Time
2021-12-05 08:20:00
Wind direction
180°
Wind speed
04 kts
Lowest cloud amount
few clouds
Temperature
2°C
Dew point
-3°C
Humidity
69%
QNH
1013 hPa
Weather condition
n/a

Description

Airport serving Alesund, Norway.

Climatology

Temperate Marine climate/Oceanic climate (Köppen climate classification Cfb). Moderately cool summer and comparatively warm winter with a temperature range of only 14°C. Prevailing south-westerly winds from the Atlantic Ocean.

Runways

Designator Length Width Surface Rops
7/25 2314 45 ASP Yes/Yes
Airport map: 
Aerial View: 

SKYbrary Partners:

Safety knowledge contributed by: